sensor_id;sensor_type;location;lat;lon;timestamp;P1;durP1;ratioP1;P2;durP2;ratioP2
68608;SDS011;55581;46.718;7.690;2022-07-10T00:00:37;5.88;;;1.25;;
68608;SDS011;55581;46.718;7.690;2022-07-10T00:03:02;5.03;;;1.17;;
68608;SDS011;55581;46.718;7.690;2022-07-10T00:05:29;4.28;;;1.23;;
68608;SDS011;55581;46.718;7.690;2022-07-10T00:07:56;5.40;;;1.10;;
68608;SDS011;55581;46.718;7.690;2022-07-10T00:10:21;2.70;;;0.90;;
68608;SDS011;55581;46.718;7.690;2022-07-10T00:12:48;3.03;;;1.00;;
68608;SDS011;55581;46.718;7.690;2022-07-10T00:15:14;3.00;;;1.10;;
68608;SDS011;55581;46.718;7.690;2022-07-10T00:17:42;7.38;;;1.17;;
68608;SDS011;55581;46.718;7.690;2022-07-10T00:20:08;5.55;;;1.00;;
68608;SDS011;55581;46.718;7.690;2022-07-10T00:22:35;3.03;;;0.80;;
68608;SDS011;55581;46.718;7.690;2022-07-10T00:25:03;4.05;;;1.20;;
68608;SDS011;55581;46.718;7.690;2022-07-10T00:27:30;5.93;;;1.17;;
68608;SDS011;55581;46.718;7.690;2022-07-10T00:29:58;3.85;;;1.33;;
68608;SDS011;55581;46.718;7.690;2022-07-10T00:32:26;3.15;;;1.00;;
68608;SDS011;55581;46.718;7.690;2022-07-10T00:34:52;3.30;;;0.97;;
68608;SDS011;55581;46.718;7.690;2022-07-10T00:37:18;3.20;;;0.98;;
68608;SDS011;55581;46.718;7.690;2022-07-10T00:39:48;6.22;;;1.45;;
68608;SDS011;55581;46.718;7.690;2022-07-10T00:42:14;3.47;;;1.20;;
68608;SDS011;55581;46.718;7.690;2022-07-10T00:44:40;3.87;;;0.90;;
68608;SDS011;55581;46.718;7.690;2022-07-10T00:47:07;4.93;;;1.17;;
68608;SDS011;55581;46.718;7.690;2022-07-10T00:49:34;5.03;;;1.30;;
68608;SDS011;55581;46.718;7.690;2022-07-10T00:52:01;3.15;;;0.95;;
68608;SDS011;55581;46.718;7.690;2022-07-10T00:54:29;2.63;;;0.85;;
68608;SDS011;55581;46.718;7.690;2022-07-10T00:56:56;4.43;;;1.20;;
68608;SDS011;55581;46.718;7.690;2022-07-10T00:59:25;6.05;;;1.05;;
68608;SDS011;55581;46.718;7.690;2022-07-10T01:01:51;3.35;;;0.98;;
68608;SDS011;55581;46.718;7.690;2022-07-10T01:04:18;3.42;;;1.13;;
68608;SDS011;55581;46.718;7.690;2022-07-10T01:06:46;4.28;;;1.08;;
68608;SDS011;55581;46.718;7.690;2022-07-10T01:09:12;5.30;;;1.30;;
68608;SDS011;55581;46.718;7.690;2022-07-10T01:11:37;3.08;;;1.20;;
68608;SDS011;55581;46.718;7.690;2022-07-10T01:14:03;5.43;;;1.37;;
68608;SDS011;55581;46.718;7.690;2022-07-10T01:16:29;2.65;;;1.00;;
68608;SDS011;55581;46.718;7.690;2022-07-10T01:18:55;4.07;;;1.33;;
68608;SDS011;55581;46.718;7.690;2022-07-10T01:21:22;4.25;;;0.90;;
68608;SDS011;55581;46.718;7.690;2022-07-10T01:23:58;5.20;;;1.30;;
68608;SDS011;55581;46.718;7.690;2022-07-10T01:26:28;3.35;;;0.90;;
68608;SDS011;55581;46.718;7.690;2022-07-10T01:28:54;6.30;;;1.33;;
68608;SDS011;55581;46.718;7.690;2022-07-10T01:31:20;3.72;;;1.20;;
68608;SDS011;55581;46.718;7.690;2022-07-10T01:33:50;3.80;;;1.10;;
68608;SDS011;55581;46.718;7.690;2022-07-10T01:36:17;3.88;;;1.40;;
68608;SDS011;55581;46.718;7.690;2022-07-10T01:38:43;4.57;;;1.38;;
68608;SDS011;55581;46.718;7.690;2022-07-10T01:41:09;3.60;;;1.13;;
68608;SDS011;55581;46.718;7.690;2022-07-10T01:43:38;4.55;;;1.05;;
68608;SDS011;55581;46.718;7.690;2022-07-10T01:46:07;3.25;;;1.20;;
68608;SDS011;55581;46.718;7.690;2022-07-10T01:48:36;8.37;;;1.10;;
68608;SDS011;55581;46.718;7.690;2022-07-10T01:51:03;9.48;;;1.63;;
68608;SDS011;55581;46.718;7.690;2022-07-10T01:53:29;4.70;;;1.27;;
68608;SDS011;55581;46.718;7.690;2022-07-10T01:55:55;2.57;;;0.80;;
68608;SDS011;55581;46.718;7.690;2022-07-10T01:58:20;4.40;;;1.45;;
68608;SDS011;55581;46.718;7.690;2022-07-10T02:00:46;3.43;;;1.40;;
68608;SDS011;55581;46.718;7.690;2022-07-10T02:03:11;5.57;;;1.60;;
68608;SDS011;55581;46.718;7.690;2022-07-10T02:05:55;3.47;;;1.20;;
68608;SDS011;55581;46.718;7.690;2022-07-10T02:08:21;4.00;;;1.47;;
68608;SDS011;55581;46.718;7.690;2022-07-10T02:10:46;3.85;;;1.40;;
68608;SDS011;55581;46.718;7.690;2022-07-10T02:13:12;3.93;;;1.20;;
68608;SDS011;55581;46.718;7.690;2022-07-10T02:15:40;2.95;;;1.05;;
68608;SDS011;55581;46.718;7.690;2022-07-10T02:18:06;4.03;;;1.20;;
68608;SDS011;55581;46.718;7.690;2022-07-10T02:20:34;4.00;;;1.10;;
68608;SDS011;55581;46.718;7.690;2022-07-10T02:23:01;3.20;;;1.23;;
68608;SDS011;55581;46.718;7.690;2022-07-10T02:25:26;3.03;;;1.25;;
68608;SDS011;55581;46.718;7.690;2022-07-10T02:27:52;2.97;;;1.10;;
68608;SDS011;55581;46.718;7.690;2022-07-10T02:30:17;4.27;;;1.17;;
68608;SDS011;55581;46.718;7.690;2022-07-10T02:32:48;3.22;;;1.13;;
68608;SDS011;55581;46.718;7.690;2022-07-10T02:35:16;4.88;;;1.30;;
68608;SDS011;55581;46.718;7.690;2022-07-10T02:37:44;4.33;;;0.93;;
68608;SDS011;55581;46.718;7.690;2022-07-10T02:40:09;4.82;;;1.30;;
68608;SDS011;55581;46.718;7.690;2022-07-10T02:42:35;4.10;;;1.43;;
68608;SDS011;55581;46.718;7.690;2022-07-10T02:45:01;3.92;;;1.30;;
68608;SDS011;55581;46.718;7.690;2022-07-10T02:47:31;4.28;;;1.27;;
68608;SDS011;55581;46.718;7.690;2022-07-10T02:49:57;3.90;;;1.08;;
68608;SDS011;55581;46.718;7.690;2022-07-10T02:52:25;3.20;;;0.83;;
68608;SDS011;55581;46.718;7.690;2022-07-10T02:54:55;3.15;;;1.10;;
68608;SDS011;55581;46.718;7.690;2022-07-10T02:57:24;3.63;;;0.97;;
68608;SDS011;55581;46.718;7.690;2022-07-10T02:59:50;3.53;;;1.20;;
68608;SDS011;55581;46.718;7.690;2022-07-10T03:02:17;4.70;;;1.30;;
68608;SDS011;55581;46.718;7.690;2022-07-10T03:04:42;5.47;;;1.30;;
68608;SDS011;55581;46.718;7.690;2022-07-10T03:07:08;3.50;;;1.20;;
68608;SDS011;55581;46.718;7.690;2022-07-10T03:09:33;3.88;;;1.40;;
68608;SDS011;55581;46.718;7.690;2022-07-10T03:12:01;3.10;;;1.27;;
68608;SDS011;55581;46.718;7.690;2022-07-10T03:14:27;3.47;;;0.98;;
68608;SDS011;55581;46.718;7.690;2022-07-10T03:16:55;2.90;;;1.00;;
68608;SDS011;55581;46.718;7.690;2022-07-10T03:19:22;3.28;;;1.20;;
68608;SDS011;55581;46.718;7.690;2022-07-10T03:21:50;4.63;;;1.02;;
68608;SDS011;55581;46.718;7.690;2022-07-10T03:24:16;5.63;;;0.93;;
68608;SDS011;55581;46.718;7.690;2022-07-10T03:26:41;4.77;;;1.40;;
68608;SDS011;55581;46.718;7.690;2022-07-10T03:29:09;5.88;;;1.35;;
68608;SDS011;55581;46.718;7.690;2022-07-10T03:31:35;6.93;;;1.27;;
68608;SDS011;55581;46.718;7.690;2022-07-10T03:34:00;3.80;;;1.27;;
68608;SDS011;55581;46.718;7.690;2022-07-10T03:36:26;3.13;;;1.20;;
68608;SDS011;55581;46.718;7.690;2022-07-10T03:38:52;3.20;;;1.10;;
68608;SDS011;55581;46.718;7.690;2022-07-10T03:41:17;4.53;;;1.20;;
68608;SDS011;55581;46.718;7.690;2022-07-10T03:43:42;4.13;;;1.30;;
68608;SDS011;55581;46.718;7.690;2022-07-10T03:46:08;4.93;;;1.20;;
68608;SDS011;55581;46.718;7.690;2022-07-10T03:48:33;5.37;;;1.30;;
68608;SDS011;55581;46.718;7.690;2022-07-10T03:51:00;4.93;;;1.33;;
68608;SDS011;55581;46.718;7.690;2022-07-10T03:53:26;3.20;;;1.30;;
68608;SDS011;55581;46.718;7.690;2022-07-10T03:55:54;3.22;;;1.20;;
68608;SDS011;55581;46.718;7.690;2022-07-10T03:58:19;3.77;;;1.20;;
68608;SDS011;55581;46.718;7.690;2022-07-10T04:00:45;3.72;;;1.33;;
68608;SDS011;55581;46.718;7.690;2022-07-10T04:03:10;3.73;;;1.40;;
68608;SDS011;55581;46.718;7.690;2022-07-10T04:05:37;2.58;;;1.10;;
68608;SDS011;55581;46.718;7.690;2022-07-10T04:08:03;6.03;;;1.50;;
68608;SDS011;55581;46.718;7.690;2022-07-10T04:10:29;3.83;;;1.63;;
68608;SDS011;55581;46.718;7.690;2022-07-10T04:12:56;5.03;;;1.40;;
68608;SDS011;55581;46.718;7.690;2022-07-10T04:15:22;4.75;;;1.35;;
68608;SDS011;55581;46.718;7.690;2022-07-10T04:17:48;5.38;;;1.23;;
68608;SDS011;55581;46.718;7.690;2022-07-10T04:20:14;3.03;;;1.00;;
68608;SDS011;55581;46.718;7.690;2022-07-10T04:22:43;3.83;;;1.73;;
68608;SDS011;55581;46.718;7.690;2022-07-10T04:25:09;3.83;;;1.30;;
68608;SDS011;55581;46.718;7.690;2022-07-10T04:27:35;3.15;;;1.35;;
68608;SDS011;55581;46.718;7.690;2022-07-10T04:30:02;3.65;;;1.13;;
68608;SDS011;55581;46.718;7.690;2022-07-10T04:32:29;7.45;;;1.58;;
68608;SDS011;55581;46.718;7.690;2022-07-10T04:34:54;3.70;;;1.00;;
68608;SDS011;55581;46.718;7.690;2022-07-10T04:37:20;3.42;;;1.17;;
68608;SDS011;55581;46.718;7.690;2022-07-10T04:39:48;3.33;;;1.23;;
68608;SDS011;55581;46.718;7.690;2022-07-10T04:42:14;4.13;;;1.37;;
68608;SDS011;55581;46.718;7.690;2022-07-10T04:44:39;4.23;;;1.57;;
68608;SDS011;55581;46.718;7.690;2022-07-10T04:47:05;5.20;;;1.67;;
68608;SDS011;55581;46.718;7.690;2022-07-10T04:49:33;4.10;;;1.13;;
68608;SDS011;55581;46.718;7.690;2022-07-10T04:51:59;3.65;;;1.40;;
68608;SDS011;55581;46.718;7.690;2022-07-10T04:54:25;5.28;;;1.60;;
68608;SDS011;55581;46.718;7.690;2022-07-10T04:56:50;7.03;;;1.33;;
68608;SDS011;55581;46.718;7.690;2022-07-10T04:59:16;4.22;;;1.48;;
68608;SDS011;55581;46.718;7.690;2022-07-10T05:01:41;3.50;;;1.67;;
68608;SDS011;55581;46.718;7.690;2022-07-10T05:04:07;3.90;;;1.25;;
68608;SDS011;55581;46.718;7.690;2022-07-10T05:06:34;3.90;;;1.40;;
68608;SDS011;55581;46.718;7.690;2022-07-10T05:08:59;4.18;;;1.45;;
68608;SDS011;55581;46.718;7.690;2022-07-10T05:11:25;4.80;;;1.92;;
68608;SDS011;55581;46.718;7.690;2022-07-10T05:13:51;4.30;;;1.80;;
68608;SDS011;55581;46.718;7.690;2022-07-10T05:16:16;4.97;;;1.40;;
68608;SDS011;55581;46.718;7.690;2022-07-10T05:18:43;4.75;;;1.30;;
68608;SDS011;55581;46.718;7.690;2022-07-10T05:21:08;3.00;;;1.20;;
68608;SDS011;55581;46.718;7.690;2022-07-10T05:23:34;3.37;;;1.37;;
68608;SDS011;55581;46.718;7.690;2022-07-10T05:26:00;4.90;;;1.42;;
68608;SDS011;55581;46.718;7.690;2022-07-10T05:28:25;4.60;;;1.43;;
68608;SDS011;55581;46.718;7.690;2022-07-10T05:30:52;4.10;;;1.73;;
68608;SDS011;55581;46.718;7.690;2022-07-10T05:33:18;4.00;;;1.47;;
68608;SDS011;55581;46.718;7.690;2022-07-10T05:35:44;3.60;;;1.20;;
68608;SDS011;55581;46.718;7.690;2022-07-10T05:38:13;4.25;;;1.40;;
68608;SDS011;55581;46.718;7.690;2022-07-10T05:40:39;4.07;;;1.60;;
68608;SDS011;55581;46.718;7.690;2022-07-10T05:43:04;3.77;;;1.43;;
68608;SDS011;55581;46.718;7.690;2022-07-10T05:45:29;4.17;;;1.60;;
68608;SDS011;55581;46.718;7.690;2022-07-10T05:47:56;5.07;;;1.15;;
68608;SDS011;55581;46.718;7.690;2022-07-10T05:50:22;4.33;;;1.63;;
68608;SDS011;55581;46.718;7.690;2022-07-10T05:52:47;3.63;;;1.58;;
68608;SDS011;55581;46.718;7.690;2022-07-10T05:55:13;6.17;;;1.30;;
68608;SDS011;55581;46.718;7.690;2022-07-10T05:57:40;3.35;;;1.33;;
68608;SDS011;55581;46.718;7.690;2022-07-10T06:00:07;4.65;;;1.30;;
68608;SDS011;55581;46.718;7.690;2022-07-10T06:02:36;5.27;;;1.47;;
68608;SDS011;55581;46.718;7.690;2022-07-10T06:05:01;3.63;;;1.20;;
68608;SDS011;55581;46.718;7.690;2022-07-10T06:07:26;3.47;;;1.30;;
68608;SDS011;55581;46.718;7.690;2022-07-10T06:09:52;3.33;;;1.30;;
68608;SDS011;55581;46.718;7.690;2022-07-10T06:12:18;2.95;;;1.20;;
68608;SDS011;55581;46.718;7.690;2022-07-10T06:14:46;3.63;;;1.10;;
68608;SDS011;55581;46.718;7.690;2022-07-10T06:17:11;4.37;;;1.20;;
68608;SDS011;55581;46.718;7.690;2022-07-10T06:19:37;4.73;;;1.30;;
68608;SDS011;55581;46.718;7.690;2022-07-10T06:22:02;3.73;;;1.40;;
68608;SDS011;55581;46.718;7.690;2022-07-10T06:24:47;3.58;;;1.55;;
68608;SDS011;55581;46.718;7.690;2022-07-10T06:27:12;6.67;;;1.40;;
68608;SDS011;55581;46.718;7.690;2022-07-10T06:29:38;4.90;;;1.20;;
68608;SDS011;55581;46.718;7.690;2022-07-10T06:32:03;4.83;;;1.20;;
68608;SDS011;55581;46.718;7.690;2022-07-10T06:34:32;5.22;;;1.25;;
68608;SDS011;55581;46.718;7.690;2022-07-10T06:36:58;7.60;;;1.37;;
68608;SDS011;55581;46.718;7.690;2022-07-10T06:39:23;4.20;;;1.53;;
68608;SDS011;55581;46.718;7.690;2022-07-10T06:41:49;3.97;;;1.23;;
68608;SDS011;55581;46.718;7.690;2022-07-10T06:44:14;6.00;;;1.30;;
68608;SDS011;55581;46.718;7.690;2022-07-10T06:46:42;3.72;;;1.48;;
68608;SDS011;55581;46.718;7.690;2022-07-10T06:49:27;3.90;;;1.33;;
68608;SDS011;55581;46.718;7.690;2022-07-10T06:51:53;3.90;;;1.33;;
68608;SDS011;55581;46.718;7.690;2022-07-10T06:54:19;3.10;;;1.20;;
68608;SDS011;55581;46.718;7.690;2022-07-10T06:56:45;4.07;;;1.30;;
68608;SDS011;55581;46.718;7.690;2022-07-10T06:59:11;3.70;;;1.33;;
68608;SDS011;55581;46.718;7.690;2022-07-10T07:01:36;5.03;;;1.60;;
68608;SDS011;55581;46.718;7.690;2022-07-10T07:04:04;3.58;;;1.23;;
68608;SDS011;55581;46.718;7.690;2022-07-10T07:06:30;3.38;;;1.67;;
68608;SDS011;55581;46.718;7.690;2022-07-10T07:08:55;3.10;;;1.30;;
68608;SDS011;55581;46.718;7.690;2022-07-10T07:11:21;4.63;;;1.67;;
68608;SDS011;55581;46.718;7.690;2022-07-10T07:13:46;3.28;;;1.05;;
68608;SDS011;55581;46.718;7.690;2022-07-10T07:16:14;4.18;;;1.60;;
68608;SDS011;55581;46.718;7.690;2022-07-10T07:18:43;5.20;;;1.47;;
68608;SDS011;55581;46.718;7.690;2022-07-10T07:21:14;3.60;;;1.50;;
68608;SDS011;55581;46.718;7.690;2022-07-10T07:23:58;5.32;;;2.05;;
68608;SDS011;55581;46.718;7.690;2022-07-10T07:26:23;3.00;;;1.30;;
68608;SDS011;55581;46.718;7.690;2022-07-10T07:28:49;4.95;;;1.40;;
68608;SDS011;55581;46.718;7.690;2022-07-10T07:31:14;4.70;;;1.50;;
68608;SDS011;55581;46.718;7.690;2022-07-10T07:33:43;3.65;;;1.48;;
68608;SDS011;55581;46.718;7.690;2022-07-10T07:36:08;5.23;;;1.60;;
68608;SDS011;55581;46.718;7.690;2022-07-10T07:38:33;4.87;;;1.60;;
68608;SDS011;55581;46.718;7.690;2022-07-10T07:40:59;5.07;;;1.50;;
68608;SDS011;55581;46.718;7.690;2022-07-10T07:43:26;3.95;;;1.63;;
68608;SDS011;55581;46.718;7.690;2022-07-10T07:45:53;5.93;;;2.22;;
68608;SDS011;55581;46.718;7.690;2022-07-10T07:48:18;4.53;;;1.80;;
68608;SDS011;55581;46.718;7.690;2022-07-10T07:50:44;3.33;;;1.60;;
68608;SDS011;55581;46.718;7.690;2022-07-10T07:53:09;4.03;;;1.77;;
68608;SDS011;55581;46.718;7.690;2022-07-10T07:55:35;5.47;;;2.03;;
68608;SDS011;55581;46.718;7.690;2022-07-10T07:58:01;5.50;;;2.30;;
68608;SDS011;55581;46.718;7.690;2022-07-10T08:00:30;3.80;;;1.73;;
68608;SDS011;55581;46.718;7.690;2022-07-10T08:02:57;6.70;;;1.83;;
68608;SDS011;55581;46.718;7.690;2022-07-10T08:05:23;5.32;;;2.00;;
68608;SDS011;55581;46.718;7.690;2022-07-10T08:07:56;4.18;;;1.77;;
68608;SDS011;55581;46.718;7.690;2022-07-10T08:10:24;3.67;;;1.57;;
68608;SDS011;55581;46.718;7.690;2022-07-10T08:12:51;4.35;;;2.10;;
68608;SDS011;55581;46.718;7.690;2022-07-10T08:15:18;4.43;;;1.70;;
68608;SDS011;55581;46.718;7.690;2022-07-10T08:17:47;4.82;;;1.70;;
68608;SDS011;55581;46.718;7.690;2022-07-10T08:20:13;5.05;;;1.90;;
68608;SDS011;55581;46.718;7.690;2022-07-10T08:22:42;4.37;;;1.37;;
68608;SDS011;55581;46.718;7.690;2022-07-10T08:25:09;4.70;;;1.67;;
68608;SDS011;55581;46.718;7.690;2022-07-10T08:27:35;4.00;;;1.63;;
68608;SDS011;55581;46.718;7.690;2022-07-10T08:30:01;5.25;;;1.70;;
68608;SDS011;55581;46.718;7.690;2022-07-10T08:32:27;3.97;;;1.83;;
68608;SDS011;55581;46.718;7.690;2022-07-10T08:34:53;3.80;;;1.70;;
68608;SDS011;55581;46.718;7.690;2022-07-10T08:37:21;4.35;;;1.88;;
68608;SDS011;55581;46.718;7.690;2022-07-10T08:39:49;4.25;;;1.63;;
68608;SDS011;55581;46.718;7.690;2022-07-10T08:42:15;4.37;;;1.60;;
68608;SDS011;55581;46.718;7.690;2022-07-10T08:44:41;5.15;;;1.90;;
68608;SDS011;55581;46.718;7.690;2022-07-10T08:47:08;3.93;;;1.57;;
68608;SDS011;55581;46.718;7.690;2022-07-10T08:49:33;5.38;;;1.83;;
68608;SDS011;55581;46.718;7.690;2022-07-10T08:52:04;4.68;;;1.95;;
68608;SDS011;55581;46.718;7.690;2022-07-10T08:54:53;4.57;;;2.05;;
68608;SDS011;55581;46.718;7.690;2022-07-10T08:57:20;4.95;;;2.00;;
68608;SDS011;55581;46.718;7.690;2022-07-10T08:59:51;3.80;;;1.70;;
68608;SDS011;55581;46.718;7.690;2022-07-10T09:02:16;6.22;;;2.10;;
68608;SDS011;55581;46.718;7.690;2022-07-10T09:04:41;6.73;;;2.67;;
68608;SDS011;55581;46.718;7.690;2022-07-10T09:07:09;5.85;;;2.00;;
68608;SDS011;55581;46.718;7.690;2022-07-10T09:09:51;3.97;;;1.73;;
68608;SDS011;55581;46.718;7.690;2022-07-10T09:12:19;4.88;;;1.52;;
68608;SDS011;55581;46.718;7.690;2022-07-10T09:14:44;4.47;;;1.85;;
68608;SDS011;55581;46.718;7.690;2022-07-10T09:17:10;3.97;;;1.70;;
68608;SDS011;55581;46.718;7.690;2022-07-10T09:19:35;4.67;;;2.40;;
68608;SDS011;55581;46.718;7.690;2022-07-10T09:22:03;4.22;;;1.83;;
68608;SDS011;55581;46.718;7.690;2022-07-10T09:24:41;4.22;;;1.80;;
68608;SDS011;55581;46.718;7.690;2022-07-10T09:27:09;4.50;;;1.70;;
68608;SDS011;55581;46.718;7.690;2022-07-10T09:29:47;4.60;;;1.80;;
68608;SDS011;55581;46.718;7.690;2022-07-10T09:32:15;4.85;;;1.65;;
68608;SDS011;55581;46.718;7.690;2022-07-10T09:34:44;5.97;;;1.88;;
68608;SDS011;55581;46.718;7.690;2022-07-10T09:37:47;4.10;;;2.20;;
68608;SDS011;55581;46.718;7.690;2022-07-10T09:40:06;3.63;;;2.08;;
68608;SDS011;55581;46.718;7.690;2022-07-10T09:42:40;4.23;;;1.87;;
68608;SDS011;55581;46.718;7.690;2022-07-10T09:47:39;6.38;;;1.90;;
68608;SDS011;55581;46.718;7.690;2022-07-10T09:52:58;6.03;;;1.63;;
68608;SDS011;55581;46.718;7.690;2022-07-10T09:55:36;3.67;;;1.60;;
68608;SDS011;55581;46.718;7.690;2022-07-10T09:58:03;5.13;;;2.05;;
68608;SDS011;55581;46.718;7.690;2022-07-10T10:00:31;4.47;;;2.10;;
68608;SDS011;55581;46.718;7.690;2022-07-10T10:03:05;6.10;;;2.28;;
68608;SDS011;55581;46.718;7.690;2022-07-10T10:05:35;4.85;;;2.10;;
68608;SDS011;55581;46.718;7.690;2022-07-10T10:08:11;4.23;;;2.00;;
68608;SDS011;55581;46.718;7.690;2022-07-10T10:10:40;3.95;;;2.00;;
68608;SDS011;55581;46.718;7.690;2022-07-10T10:13:10;6.47;;;2.15;;
68608;SDS011;55581;46.718;7.690;2022-07-10T10:15:36;4.78;;;2.03;;
68608;SDS011;55581;46.718;7.690;2022-07-10T10:18:02;5.40;;;2.08;;
68608;SDS011;55581;46.718;7.690;2022-07-10T10:20:32;3.63;;;2.07;;
68608;SDS011;55581;46.718;7.690;2022-07-10T10:23:05;3.85;;;2.00;;
68608;SDS011;55581;46.718;7.690;2022-07-10T10:25:32;3.85;;;1.92;;
68608;SDS011;55581;46.718;7.690;2022-07-10T10:28:05;3.90;;;2.13;;
68608;SDS011;55581;46.718;7.690;2022-07-10T10:30:33;5.57;;;1.98;;
68608;SDS011;55581;46.718;7.690;2022-07-10T10:33:53;3.60;;;2.00;;
68608;SDS011;55581;46.718;7.690;2022-07-10T10:36:01;4.03;;;2.13;;
68608;SDS011;55581;46.718;7.690;2022-07-10T10:41:24;4.95;;;1.80;;
68608;SDS011;55581;46.718;7.690;2022-07-10T10:46:52;6.03;;;2.20;;
68608;SDS011;55581;46.718;7.690;2022-07-10T10:49:22;3.83;;;2.10;;
68608;SDS011;55581;46.718;7.690;2022-07-10T10:52:08;4.80;;;2.10;;
68608;SDS011;55581;46.718;7.690;2022-07-10T10:57:23;3.80;;;1.90;;
68608;SDS011;55581;46.718;7.690;2022-07-10T11:00:08;3.40;;;1.83;;
68608;SDS011;55581;46.718;7.690;2022-07-10T11:02:42;4.60;;;1.80;;
68608;SDS011;55581;46.718;7.690;2022-07-10T11:07:51;4.63;;;2.40;;
68608;SDS011;55581;46.718;7.690;2022-07-10T11:12:57;5.97;;;2.10;;
68608;SDS011;55581;46.718;7.690;2022-07-10T11:15:27;4.07;;;1.90;;
68608;SDS011;55581;46.718;7.690;2022-07-10T11:18:07;4.95;;;2.33;;
68608;SDS011;55581;46.718;7.690;2022-07-10T11:20:34;5.67;;;1.83;;
68608;SDS011;55581;46.718;7.690;2022-07-10T11:25:52;4.32;;;2.10;;
68608;SDS011;55581;46.718;7.690;2022-07-10T11:31:20;3.83;;;1.92;;
68608;SDS011;55581;46.718;7.690;2022-07-10T11:33:50;5.40;;;1.90;;
68608;SDS011;55581;46.718;7.690;2022-07-10T11:36:21;4.03;;;2.00;;
68608;SDS011;55581;46.718;7.690;2022-07-10T11:41:23;6.10;;;2.28;;
68608;SDS011;55581;46.718;7.690;2022-07-10T11:43:58;4.57;;;2.10;;
68608;SDS011;55581;46.718;7.690;2022-07-10T11:46:28;4.43;;;2.03;;
68608;SDS011;55581;46.718;7.690;2022-07-10T11:48:54;9.15;;;3.10;;
68608;SDS011;55581;46.718;7.690;2022-07-10T11:53:56;4.05;;;2.30;;
68608;SDS011;55581;46.718;7.690;2022-07-10T11:56:27;12.18;;;2.30;;
68608;SDS011;55581;46.718;7.690;2022-07-10T11:58:59;4.97;;;1.93;;
68608;SDS011;55581;46.718;7.690;2022-07-10T12:01:29;4.80;;;2.17;;
68608;SDS011;55581;46.718;7.690;2022-07-10T12:04:15;4.05;;;2.15;;
68608;SDS011;55581;46.718;7.690;2022-07-10T12:06:42;5.40;;;2.45;;
68608;SDS011;55581;46.718;7.690;2022-07-10T12:09:15;4.63;;;2.15;;
68608;SDS011;55581;46.718;7.690;2022-07-10T12:11:45;4.60;;;2.00;;
68608;SDS011;55581;46.718;7.690;2022-07-10T12:14:23;6.65;;;2.10;;
68608;SDS011;55581;46.718;7.690;2022-07-10T12:16:56;3.95;;;1.92;;
68608;SDS011;55581;46.718;7.690;2022-07-10T12:19:24;4.85;;;2.33;;
68608;SDS011;55581;46.718;7.690;2022-07-10T12:21:55;4.40;;;2.33;;
68608;SDS011;55581;46.718;7.690;2022-07-10T12:24:22;4.17;;;2.17;;
68608;SDS011;55581;46.718;7.690;2022-07-10T12:26:49;3.83;;;2.25;;
68608;SDS011;55581;46.718;7.690;2022-07-10T12:31:53;4.65;;;2.00;;
68608;SDS011;55581;46.718;7.690;2022-07-10T12:34:40;4.22;;;1.73;;
68608;SDS011;55581;46.718;7.690;2022-07-10T12:37:11;5.13;;;1.87;;
68608;SDS011;55581;46.718;7.690;2022-07-10T12:39:53;4.93;;;1.98;;
68608;SDS011;55581;46.718;7.690;2022-07-10T12:42:25;5.13;;;2.60;;
68608;SDS011;55581;46.718;7.690;2022-07-10T12:44:52;6.32;;;2.40;;
68608;SDS011;55581;46.718;7.690;2022-07-10T12:47:18;4.10;;;2.40;;
68608;SDS011;55581;46.718;7.690;2022-07-10T12:55:20;4.60;;;1.98;;
68608;SDS011;55581;46.718;7.690;2022-07-10T12:57:57;3.77;;;2.13;;
68608;SDS011;55581;46.718;7.690;2022-07-10T13:00:29;3.53;;;2.10;;
68608;SDS011;55581;46.718;7.690;2022-07-10T13:03:02;4.85;;;2.38;;
68608;SDS011;55581;46.718;7.690;2022-07-10T13:05:41;5.05;;;2.13;;
68608;SDS011;55581;46.718;7.690;2022-07-10T13:10:33;5.13;;;2.20;;
68608;SDS011;55581;46.718;7.690;2022-07-10T13:13:02;5.88;;;2.50;;
68608;SDS011;55581;46.718;7.690;2022-07-10T13:15:31;4.35;;;2.28;;
68608;SDS011;55581;46.718;7.690;2022-07-10T13:17:57;5.07;;;1.90;;
68608;SDS011;55581;46.718;7.690;2022-07-10T13:20:22;5.28;;;2.30;;
68608;SDS011;55581;46.718;7.690;2022-07-10T13:22:48;5.40;;;2.05;;
68608;SDS011;55581;46.718;7.690;2022-07-10T13:25:14;5.10;;;2.30;;
68608;SDS011;55581;46.718;7.690;2022-07-10T13:27:40;4.47;;;2.28;;
68608;SDS011;55581;46.718;7.690;2022-07-10T13:30:07;5.35;;;2.33;;
68608;SDS011;55581;46.718;7.690;2022-07-10T13:32:33;4.03;;;2.30;;
68608;SDS011;55581;46.718;7.690;2022-07-10T13:35:01;5.10;;;2.13;;
68608;SDS011;55581;46.718;7.690;2022-07-10T13:37:27;7.55;;;2.20;;
68608;SDS011;55581;46.718;7.690;2022-07-10T13:39:54;4.27;;;2.27;;
68608;SDS011;55581;46.718;7.690;2022-07-10T13:42:20;3.60;;;2.15;;
68608;SDS011;55581;46.718;7.690;2022-07-10T13:44:49;3.30;;;2.20;;
68608;SDS011;55581;46.718;7.690;2022-07-10T13:47:14;4.55;;;2.17;;
68608;SDS011;55581;46.718;7.690;2022-07-10T13:49:39;3.87;;;2.07;;
68608;SDS011;55581;46.718;7.690;2022-07-10T13:52:07;5.00;;;2.30;;
68608;SDS011;55581;46.718;7.690;2022-07-10T13:54:33;3.72;;;2.03;;
68608;SDS011;55581;46.718;7.690;2022-07-10T13:56:59;3.77;;;2.40;;
68608;SDS011;55581;46.718;7.690;2022-07-10T13:59:24;3.93;;;2.23;;
68608;SDS011;55581;46.718;7.690;2022-07-10T14:01:51;4.78;;;1.90;;
68608;SDS011;55581;46.718;7.690;2022-07-10T14:04:16;5.50;;;2.07;;
68608;SDS011;55581;46.718;7.690;2022-07-10T14:06:41;3.80;;;2.22;;
68608;SDS011;55581;46.718;7.690;2022-07-10T14:09:07;4.13;;;2.07;;
68608;SDS011;55581;46.718;7.690;2022-07-10T14:11:34;5.45;;;2.25;;
68608;SDS011;55581;46.718;7.690;2022-07-10T14:14:00;3.40;;;1.90;;
68608;SDS011;55581;46.718;7.690;2022-07-10T14:16:26;3.95;;;1.83;;
68608;SDS011;55581;46.718;7.690;2022-07-10T14:18:51;3.83;;;2.10;;
68608;SDS011;55581;46.718;7.690;2022-07-10T14:21:18;4.10;;;2.30;;
68608;SDS011;55581;46.718;7.690;2022-07-10T14:23:44;3.60;;;1.90;;
68608;SDS011;55581;46.718;7.690;2022-07-10T14:26:10;4.33;;;2.03;;
68608;SDS011;55581;46.718;7.690;2022-07-10T14:28:36;4.15;;;2.33;;
68608;SDS011;55581;46.718;7.690;2022-07-10T14:31:03;3.35;;;1.98;;
68608;SDS011;55581;46.718;7.690;2022-07-10T14:33:33;4.57;;;2.40;;
68608;SDS011;55581;46.718;7.690;2022-07-10T14:36:01;4.13;;;1.73;;
68608;SDS011;55581;46.718;7.690;2022-07-10T14:38:30;5.55;;;2.00;;
68608;SDS011;55581;46.718;7.690;2022-07-10T14:40:55;6.53;;;2.20;;
68608;SDS011;55581;46.718;7.690;2022-07-10T14:43:23;5.73;;;2.00;;
68608;SDS011;55581;46.718;7.690;2022-07-10T14:45:49;7.47;;;2.47;;
68608;SDS011;55581;46.718;7.690;2022-07-10T14:48:16;4.57;;;2.40;;
68608;SDS011;55581;46.718;7.690;2022-07-10T14:50:46;3.33;;;1.80;;
68608;SDS011;55581;46.718;7.690;2022-07-10T14:53:12;5.80;;;2.00;;
68608;SDS011;55581;46.718;7.690;2022-07-10T14:55:37;6.73;;;2.07;;
68608;SDS011;55581;46.718;7.690;2022-07-10T14:58:02;5.63;;;2.00;;
68608;SDS011;55581;46.718;7.690;2022-07-10T15:00:28;5.03;;;2.25;;
68608;SDS011;55581;46.718;7.690;2022-07-10T15:02:56;3.43;;;1.90;;
68608;SDS011;55581;46.718;7.690;2022-07-10T15:05:21;5.20;;;1.85;;
68608;SDS011;55581;46.718;7.690;2022-07-10T15:07:46;4.10;;;1.90;;
68608;SDS011;55581;46.718;7.690;2022-07-10T15:10:12;6.07;;;2.07;;
68608;SDS011;55581;46.718;7.690;2022-07-10T15:12:37;4.32;;;1.92;;
68608;SDS011;55581;46.718;7.690;2022-07-10T15:15:04;5.20;;;2.10;;
68608;SDS011;55581;46.718;7.690;2022-07-10T15:17:33;5.00;;;2.05;;
68608;SDS011;55581;46.718;7.690;2022-07-10T15:20:01;3.83;;;1.92;;
68608;SDS011;55581;46.718;7.690;2022-07-10T15:22:30;3.40;;;1.80;;
68608;SDS011;55581;46.718;7.690;2022-07-10T15:24:57;4.75;;;2.05;;
68608;SDS011;55581;46.718;7.690;2022-07-10T15:27:23;3.90;;;2.30;;
68608;SDS011;55581;46.718;7.690;2022-07-10T15:29:48;4.43;;;2.00;;
68608;SDS011;55581;46.718;7.690;2022-07-10T15:32:14;4.50;;;2.60;;